Time;durP1;ratioP1;P1;durP2;ratioP2;P2;SDS_P1;SDS_P2;PMS_P1;PMS_P2;Temp;Humidity;BMP_temperature;BMP_pressure;BME280_temperature;BME280_humidity;BME280_pressure;Samples;Min_cycle;Max_cycle;Signal;HPM_P1;HPM_P2
2023/05/01 00:00:43;;;;;;;6.47;3.95;;;8.90;99.90;;;;;;5051310;28;20039;-82
2023/05/01 00:03:08;;;;;;;5.72;3.70;;;8.90;99.90;;;;;;5054717;28;20379;-82
2023/05/01 00:05:34;;;;;;;7.07;3.72;;;8.90;99.90;;;;;;5067658;28;20070;-82
2023/05/01 00:08:00;;;;;;;8.05;3.33;;;8.90;99.90;;;;;;5054105;28;20828;-82
2023/05/01 00:10:25;;;;;;;7.70;4.18;;;8.80;99.90;;;;;;5068731;28;20031;-81
2023/05/01 00:12:51;;;;;;;6.60;3.78;;;8.80;99.90;;;;;;5054692;28;20032;-81
2023/05/01 00:15:17;;;;;;;7.95;4.05;;;8.80;99.90;;;;;;5064716;28;20033;-81
2023/05/01 00:17:42;;;;;;;5.05;3.83;;;8.80;99.90;;;;;;5038079;28;20045;-81
2023/05/01 00:20:08;;;;;;;4.30;3.65;;;8.70;99.90;;;;;;5048067;28;20065;-82
2023/05/01 00:22:34;;;;;;;4.95;3.70;;;8.70;99.90;;;;;;5055488;28;20057;-81
2023/05/01 00:25:00;;;;;;;7.93;3.90;;;8.70;99.90;;;;;;5053964;28;20389;-82
2023/05/01 00:27:26;;;;;;;9.82;4.32;;;8.60;99.90;;;;;;5071211;28;20040;-81
2023/05/01 00:29:51;;;;;;;7.05;4.63;;;8.50;99.90;;;;;;5054665;28;20063;-81
2023/05/01 00:32:17;;;;;;;7.32;4.63;;;8.50;99.90;;;;;;5049141;28;20068;-81
2023/05/01 00:34:44;;;;;;;9.13;4.13;;;8.40;99.90;;;;;;5054671;28;20443;-81
2023/05/01 00:37:10;;;;;;;5.82;4.03;;;8.40;99.90;;;;;;5071179;28;20056;-82
2023/05/01 00:39:36;;;;;;;6.93;4.78;;;8.30;99.90;;;;;;5055222;28;20079;-81
2023/05/01 00:42:02;;;;;;;7.20;4.80;;;8.30;99.90;;;;;;5054718;28;20071;-82
2023/05/01 00:44:28;;;;;;;6.45;4.32;;;8.20;99.90;;;;;;5054859;28;20488;-81
2023/05/01 00:46:55;;;;;;;8.63;4.97;;;8.20;99.90;;;;;;5054146;28;20031;-82
2023/05/01 00:49:21;;;;;;;9.50;4.90;;;8.20;99.90;;;;;;5054604;28;20089;-81
2023/05/01 00:51:51;;;;;;;6.47;4.40;;;8.10;99.90;;;;;;5052668;28;20032;-82
2023/05/01 00:54:18;;;;;;;10.07;4.45;;;8.10;99.90;;;;;;5038716;28;20059;-81
2023/05/01 00:56:46;;;;;;;10.90;4.75;;;8.10;99.90;;;;;;5059110;28;20155;-82
2023/05/01 00:59:13;;;;;;;8.23;4.72;;;8.00;99.90;;;;;;5054894;28;20119;-81
2023/05/01 01:01:41;;;;;;;9.05;4.32;;;8.10;99.90;;;;;;5053117;28;20032;-81
2023/05/01 01:04:07;;;;;;;9.25;5.15;;;8.00;99.90;;;;;;5054979;28;20021;-82
2023/05/01 01:06:45;;;;;;;6.13;4.65;;;8.00;99.90;;;;;;5053995;28;20082;-81
2023/05/01 01:09:28;;;;;;;7.85;4.85;;;8.00;99.90;;;;;;5042541;28;20505;-81
2023/05/01 01:12:00;;;;;;;6.30;4.93;;;7.90;99.90;;;;;;5050538;28;20021;-81
2023/05/01 01:14:55;;;;;;;6.95;4.90;;;7.90;99.90;;;;;;5057837;28;20024;-81
2023/05/01 01:17:57;;;;;;;7.70;4.82;;;7.90;99.90;;;;;;5048109;28;20120;-81
2023/05/01 01:20:48;;;;;;;9.65;5.18;;;7.90;99.90;;;;;;5049054;28;20067;-81
2023/05/01 01:23:50;;;;;;;6.90;4.88;;;7.90;99.90;;;;;;5054134;28;20033;-81
2023/05/01 01:26:50;;;;;;;7.43;4.45;;;7.90;99.90;;;;;;5061363;28;20033;-81
2023/05/01 01:29:40;;;;;;;8.50;5.47;;;8.00;99.90;;;;;;5071009;28;20039;-82
2023/05/01 01:32:50;;;;;;;11.98;5.38;;;8.10;99.90;;;;;;5054885;28;20025;-81
2023/05/01 01:35:24;;;;;;;7.20;5.18;;;8.00;99.90;;;;;;5051065;28;20056;-81
2023/05/01 01:38:10;;;;;;;9.15;4.90;;;8.00;99.90;;;;;;5067330;28;20711;-81
2023/05/01 01:41:08;;;;;;;7.03;4.75;;;8.00;99.90;;;;;;5058743;28;20025;-81
2023/05/01 01:43:39;;;;;;;9.73;5.25;;;8.10;99.90;;;;;;5039432;28;20040;-81
2023/05/01 01:46:09;;;;;;;9.85;5.38;;;8.00;99.90;;;;;;5054449;28;20051;-81
2023/05/01 01:48:39;;;;;;;6.25;4.82;;;8.00;99.90;;;;;;5070694;28;20055;-81
2023/05/01 01:51:09;;;;;;;8.00;5.07;;;7.90;99.90;;;;;;5042704;28;20037;-81
2023/05/01 01:53:38;;;;;;;6.70;4.75;;;7.90;99.90;;;;;;5047561;28;20027;-82
2023/05/01 01:56:05;;;;;;;10.40;4.68;;;8.00;99.90;;;;;;5050977;28;20032;-82
2023/05/01 01:58:35;;;;;;;7.20;5.13;;;8.10;99.90;;;;;;5047469;28;20604;-81
2023/05/01 02:01:02;;;;;;;11.85;5.45;;;8.10;99.90;;;;;;5053780;28;20021;-81
2023/05/01 02:03:29;;;;;;;9.50;5.63;;;8.20;99.90;;;;;;5058082;28;20170;-82
2023/05/01 02:05:56;;;;;;;10.07;5.68;;;8.20;99.90;;;;;;5056372;28;20059;-80
2023/05/01 02:08:23;;;;;;;8.23;5.15;;;8.10;99.90;;;;;;5057671;28;20029;-82
2023/05/01 02:10:49;;;;;;;9.68;5.68;;;8.00;99.90;;;;;;5057367;28;20028;-81
2023/05/01 02:13:17;;;;;;;12.45;6.05;;;8.00;99.90;;;;;;5073823;28;20033;-81
2023/05/01 02:15:44;;;;;;;9.55;5.85;;;7.90;99.90;;;;;;5049521;28;20029;-81
2023/05/01 02:18:11;;;;;;;9.35;5.60;;;8.00;99.90;;;;;;5054593;28;20044;-81
2023/05/01 02:20:37;;;;;;;8.20;5.82;;;7.90;99.90;;;;;;5053957;28;20036;-81
2023/05/01 02:23:04;;;;;;;9.07;5.97;;;7.90;99.90;;;;;;5053946;28;20082;-81
2023/05/01 02:25:34;;;;;;;12.88;5.97;;;7.80;99.90;;;;;;5068845;28;20032;-81
2023/05/01 02:28:05;;;;;;;9.15;6.00;;;7.80;99.90;;;;;;5053807;28;20025;-82
2023/05/01 02:30:31;;;;;;;7.10;5.50;;;7.70;99.90;;;;;;5052789;28;20564;-82
2023/05/01 02:32:58;;;;;;;9.20;5.85;;;7.70;99.90;;;;;;5057684;28;20483;-82
2023/05/01 02:35:24;;;;;;;11.00;6.30;;;7.60;99.90;;;;;;5057312;28;20115;-82
2023/05/01 02:37:50;;;;;;;13.45;7.20;;;7.60;99.90;;;;;;5070038;28;20117;-82
2023/05/01 02:40:16;;;;;;;10.38;6.07;;;7.60;99.90;;;;;;5057019;28;20036;-82
2023/05/01 02:42:46;;;;;;;11.30;5.88;;;7.50;99.90;;;;;;5056227;28;20021;-82
2023/05/01 02:45:20;;;;;;;8.57;5.63;;;7.50;99.90;;;;;;5045720;28;20070;-82
2023/05/01 02:47:50;;;;;;;8.27;5.90;;;7.50;99.90;;;;;;5055624;28;20059;-82
2023/05/01 02:50:16;;;;;;;9.00;6.03;;;7.50;99.90;;;;;;5050304;28;20037;-82
2023/05/01 02:52:43;;;;;;;12.50;6.85;;;7.50;99.90;;;;;;5050741;28;20013;-81
2023/05/01 02:55:29;;;;;;;10.45;6.82;;;7.50;99.90;;;;;;5039502;28;20028;-82
2023/05/01 02:57:58;;;;;;;11.75;6.47;;;7.40;99.90;;;;;;5063589;28;20031;-81
2023/05/01 03:00:26;;;;;;;11.40;6.45;;;7.30;99.90;;;;;;5065362;28;20058;-81
2023/05/01 03:02:52;;;;;;;10.20;6.40;;;7.30;99.90;;;;;;5055174;28;20476;-82
2023/05/01 03:05:18;;;;;;;9.20;6.53;;;7.20;99.90;;;;;;5066459;28;20035;-82
2023/05/01 03:07:45;;;;;;;13.75;6.85;;;7.20;99.90;;;;;;5051893;28;20499;-82
2023/05/01 03:10:10;;;;;;;9.57;7.22;;;7.20;99.90;;;;;;5053859;28;20518;-82
2023/05/01 03:12:36;;;;;;;13.82;7.03;;;7.20;99.90;;;;;;5056462;28;20033;-82
2023/05/01 03:15:02;;;;;;;9.43;6.93;;;7.20;99.90;;;;;;5071601;28;20032;-82
2023/05/01 03:17:29;;;;;;;11.88;6.72;;;7.20;99.90;;;;;;5056994;28;20032;-82
2023/05/01 03:19:54;;;;;;;11.40;6.78;;;7.10;99.90;;;;;;5053951;28;20038;-82
2023/05/01 03:22:20;;;;;;;8.07;6.43;;;7.10;99.90;;;;;;5047238;28;20574;-82
2023/05/01 03:24:46;;;;;;;13.15;6.55;;;7.10;99.90;;;;;;5063698;28;20057;-82
2023/05/01 03:27:12;;;;;;;12.68;6.57;;;7.10;99.90;;;;;;5046849;28;20023;-81
2023/05/01 03:29:38;;;;;;;14.82;7.20;;;7.10;99.90;;;;;;5056301;28;20400;-82
2023/05/01 03:32:04;;;;;;;8.73;6.82;;;7.10;99.90;;;;;;5055600;28;20029;-82
2023/05/01 03:34:30;;;;;;;20.52;7.00;;;7.10;99.90;;;;;;5069147;28;20383;-81
2023/05/01 03:36:56;;;;;;;10.50;7.32;;;7.00;99.90;;;;;;5056118;28;20032;-81
2023/05/01 03:39:24;;;;;;;11.32;7.95;;;7.10;99.90;;;;;;5056077;28;20074;-82
2023/05/01 03:42:23;;;;;;;10.07;7.43;;;7.00;99.90;;;;;;5048349;28;20040;-82
2023/05/01 03:44:51;;;;;;;13.40;7.50;;;7.00;99.90;;;;;;5054359;28;20040;-82
2023/05/01 03:47:18;;;;;;;11.95;7.03;;;6.90;99.90;;;;;;5053344;28;20091;-82
2023/05/01 03:49:44;;;;;;;14.48;8.60;;;6.90;99.90;;;;;;5052354;28;20064;-81
2023/05/01 03:52:11;;;;;;;14.30;7.50;;;6.80;99.90;;;;;;5072271;28;20020;-82
2023/05/01 03:54:37;;;;;;;10.15;7.45;;;6.80;99.90;;;;;;5072428;28;20111;-82
2023/05/01 03:57:27;;;;;;;16.50;7.85;;;6.90;99.90;;;;;;5071350;28;20123;-81
2023/05/01 03:59:53;;;;;;;12.98;7.45;;;6.80;99.90;;;;;;5055942;28;20055;-82
2023/05/01 04:02:20;;;;;;;15.38;7.65;;;6.90;99.90;;;;;;5055536;28;20035;-82
2023/05/01 04:05:01;;;;;;;14.20;7.97;;;6.90;99.90;;;;;;5048737;28;20116;-84
2023/05/01 04:07:28;;;;;;;12.48;7.78;;;6.90;99.90;;;;;;5068036;28;20051;-85
2023/05/01 04:09:54;;;;;;;11.40;7.60;;;6.80;99.90;;;;;;5051317;28;20020;-85
2023/05/01 04:12:19;;;;;;;12.43;6.85;;;6.80;99.90;;;;;;5050093;28;20047;-85
2023/05/01 04:14:45;;;;;;;9.43;7.22;;;6.80;99.90;;;;;;5072047;28;20028;-84
2023/05/01 04:17:11;;;;;;;10.45;7.47;;;6.80;99.90;;;;;;5044521;28;20356;-85
2023/05/01 04:19:38;;;;;;;10.75;7.07;;;6.80;99.90;;;;;;5054523;28;20055;-85
2023/05/01 04:22:04;;;;;;;10.70;7.40;;;6.90;99.90;;;;;;5056045;28;20040;-84
2023/05/01 04:24:31;;;;;;;13.77;7.82;;;6.80;99.90;;;;;;5054938;28;20058;-84
2023/05/01 04:26:57;;;;;;;10.52;6.70;;;6.90;99.90;;;;;;5071487;28;20029;-84
2023/05/01 04:29:23;;;;;;;11.70;7.63;;;7.00;99.90;;;;;;5052015;28;20023;-84
2023/05/01 04:31:49;;;;;;;14.52;7.05;;;7.00;99.90;;;;;;5054066;28;20029;-84
2023/05/01 04:34:15;;;;;;;11.23;7.63;;;7.10;99.90;;;;;;5054522;28;20059;-84
2023/05/01 04:36:40;;;;;;;13.30;7.30;;;7.20;99.90;;;;;;5051991;28;20036;-85
2023/05/01 04:39:06;;;;;;;11.90;7.63;;;7.30;99.90;;;;;;5072799;28;20140;-85
2023/05/01 04:41:32;;;;;;;10.25;7.03;;;7.40;99.90;;;;;;5052973;28;20083;-85
2023/05/01 04:43:58;;;;;;;14.95;6.90;;;7.40;99.90;;;;;;5052921;28;20025;-85
2023/05/01 04:46:24;;;;;;;10.60;6.93;;;7.60;99.90;;;;;;5061612;28;20032;-85
2023/05/01 04:48:50;;;;;;;18.75;7.38;;;7.70;99.90;;;;;;5051187;28;20048;-84
2023/05/01 04:51:16;;;;;;;10.93;7.05;;;7.90;99.90;;;;;;5046756;28;20419;-85
2023/05/01 04:53:42;;;;;;;8.45;6.78;;;8.00;99.90;;;;;;5052847;28;20024;-84
2023/05/01 04:56:17;;;;;;;9.13;6.60;;;8.20;99.90;;;;;;5057197;28;20037;-85
2023/05/01 04:58:44;;;;;;;10.55;6.75;;;8.30;99.90;;;;;;5069281;28;20029;-85
2023/05/01 05:01:14;;;;;;;13.95;7.15;;;8.40;99.90;;;;;;5067605;28;20468;-85
2023/05/01 05:03:40;;;;;;;11.63;6.22;;;8.50;99.90;;;;;;5052602;28;20027;-85
2023/05/01 05:06:08;;;;;;;12.38;7.03;;;8.70;99.90;;;;;;5045036;28;20041;-84
2023/05/01 05:08:34;;;;;;;11.38;6.35;;;8.70;99.90;;;;;;5044269;28;20017;-85
2023/05/01 05:11:07;;;;;;;10.27;6.55;;;8.80;99.90;;;;;;5048657;28;20033;-85
2023/05/01 05:13:39;;;;;;;10.30;6.88;;;8.90;99.90;;;;;;5056758;28;20029;-85
2023/05/01 05:16:10;;;;;;;10.93;6.90;;;9.00;99.90;;;;;;5049450;28;20025;-85
2023/05/01 05:18:37;;;;;;;11.07;6.78;;;9.00;99.90;;;;;;5055589;28;20045;-85
2023/05/01 05:21:04;;;;;;;10.00;6.68;;;9.10;99.90;;;;;;5055440;28;20365;-85
2023/05/01 05:23:30;;;;;;;11.23;6.88;;;9.10;99.90;;;;;;5053785;28;20050;-85
2023/05/01 05:26:00;;;;;;;15.25;6.57;;;9.30;99.90;;;;;;5054021;28;20100;-84
2023/05/01 05:28:27;;;;;;;10.50;6.50;;;9.40;99.90;;;;;;5055146;28;20862;-84
2023/05/01 05:30:54;;;;;;;12.30;7.32;;;9.50;99.90;;;;;;5040032;28;20029;-85
2023/05/01 05:33:21;;;;;;;9.57;7.45;;;9.60;99.90;;;;;;5047427;28;20085;-85
2023/05/01 05:35:48;;;;;;;8.73;6.45;;;9.70;99.90;;;;;;5045252;28;20044;-84
2023/05/01 05:38:14;;;;;;;13.68;6.65;;;9.80;99.90;;;;;;5057218;28;20021;-85
2023/05/01 05:40:42;;;;;;;10.80;6.95;;;9.90;99.90;;;;;;5058929;28;20120;-85
2023/05/01 05:43:09;;;;;;;13.32;6.65;;;9.90;99.90;;;;;;5055720;28;20048;-85
2023/05/01 05:45:36;;;;;;;12.32;6.78;;;10.00;99.90;;;;;;5058210;28;20031;-86
2023/05/01 05:48:03;;;;;;;11.35;6.85;;;9.90;99.90;;;;;;5048943;28;20025;-86
2023/05/01 05:50:31;;;;;;;12.07;7.20;;;9.90;99.90;;;;;;5054262;28;20028;-86
2023/05/01 05:52:57;;;;;;;15.32;7.82;;;10.00;99.90;;;;;;5065644;28;20032;-86
2023/05/01 05:55:24;;;;;;;11.07;6.90;;;10.00;99.90;;;;;;5044373;28;20259;-86
2023/05/01 05:57:59;;;;;;;13.02;7.15;;;10.00;99.90;;;;;;5047648;28;20107;-86
2023/05/01 06:00:25;;;;;;;7.97;6.47;;;10.10;99.90;;;;;;5064671;28;20111;-86
2023/05/01 06:02:51;;;;;;;12.98;7.32;;;10.10;99.90;;;;;;5052355;28;20610;-86
2023/05/01 06:05:19;;;;;;;12.50;7.28;;;10.20;99.90;;;;;;5050987;28;20112;-86
2023/05/01 06:07:45;;;;;;;11.15;7.03;;;10.30;99.90;;;;;;5065569;28;20514;-86
2023/05/01 06:10:11;;;;;;;9.05;6.55;;;10.40;99.90;;;;;;5043244;28;20380;-86
2023/05/01 06:12:39;;;;;;;14.60;7.15;;;10.40;99.90;;;;;;5055581;28;20041;-86
2023/05/01 06:15:07;;;;;;;15.02;7.15;;;10.60;99.90;;;;;;5063189;28;20032;-86
2023/05/01 06:17:36;;;;;;;10.35;6.43;;;10.60;99.90;;;;;;5058805;28;20829;-86
2023/05/01 06:20:04;;;;;;;12.02;6.70;;;10.70;99.90;;;;;;5063475;28;20037;-86
2023/05/01 06:22:30;;;;;;;10.48;6.07;;;10.90;99.90;;;;;;5054581;28;20120;-85
2023/05/01 06:25:08;;;;;;;8.60;5.88;;;11.10;99.90;;;;;;5051973;28;20025;-86
2023/05/01 06:27:35;;;;;;;9.30;6.18;;;11.30;99.90;;;;;;5044112;28;20722;-85
2023/05/01 06:30:01;;;;;;;10.35;6.35;;;11.50;99.90;;;;;;5054302;28;20495;-86
2023/05/01 06:32:28;;;;;;;10.95;6.53;;;11.60;99.90;;;;;;5049245;28;20029;-86
2023/05/01 06:34:54;;;;;;;11.40;6.55;;;11.80;99.90;;;;;;5057020;28;20530;-86
2023/05/01 06:37:20;;;;;;;11.55;6.05;;;11.90;99.90;;;;;;5065830;28;20032;-86
2023/05/01 06:39:47;;;;;;;14.27;6.45;;;12.20;99.90;;;;;;5050990;28;20066;-86
2023/05/01 06:42:15;;;;;;;9.27;6.32;;;12.20;99.90;;;;;;5057061;28;20491;-86
2023/05/01 06:44:41;;;;;;;9.98;6.80;;;12.20;99.90;;;;;;5056397;28;20032;-86
2023/05/01 06:47:07;;;;;;;11.70;6.60;;;12.10;99.90;;;;;;5068084;28;20025;-86
2023/05/01 06:49:33;;;;;;;12.88;6.75;;;12.10;99.90;;;;;;5049439;28;20040;-87
2023/05/01 06:52:00;;;;;;;9.85;6.82;;;11.90;99.90;;;;;;5051835;28;20377;-86
2023/05/01 06:54:26;;;;;;;10.35;5.95;;;12.00;99.90;;;;;;5038909;28;20036;-86
2023/05/01 06:56:52;;;;;;;10.57;6.70;;;12.10;99.90;;;;;;5039936;28;20036;-86
2023/05/01 06:59:18;;;;;;;11.43;6.75;;;12.20;99.90;;;;;;5055274;28;20556;-86
2023/05/01 07:01:44;;;;;;;9.68;6.70;;;12.30;99.90;;;;;;5052705;28;20111;-86
2023/05/01 07:04:09;;;;;;;10.00;6.57;;;12.40;99.90;;;;;;5073207;28;20074;-86
2023/05/01 07:06:36;;;;;;;14.20;7.45;;;12.40;99.90;;;;;;5046648;28;20040;-86
2023/05/01 07:09:02;;;;;;;11.15;7.05;;;12.50;99.90;;;;;;5038766;28;20024;-86
2023/05/01 07:11:28;;;;;;;10.73;6.55;;;12.70;99.90;;;;;;5070567;28;20119;-86
2023/05/01 07:13:54;;;;;;;10.73;6.13;;;12.60;99.90;;;;;;5063521;28;20455;-86
2023/05/01 07:16:20;;;;;;;8.65;6.15;;;12.30;99.90;;;;;;5048246;28;20123;-86
2023/05/01 07:18:46;;;;;;;9.82;6.93;;;12.10;99.90;;;;;;5057978;28;20062;-86
2023/05/01 07:21:11;;;;;;;13.32;7.00;;;12.00;99.90;;;;;;5063993;28;20028;-86
2023/05/01 07:23:38;;;;;;;11.50;7.10;;;11.80;99.90;;;;;;5053478;28;20076;-86
2023/05/01 07:26:04;;;;;;;13.23;7.50;;;11.60;99.90;;;;;;5063053;28;20020;-86
2023/05/01 07:28:30;;;;;;;11.27;6.60;;;11.60;99.90;;;;;;5041650;28;20395;-86
2023/05/01 07:30:56;;;;;;;9.65;7.53;;;11.40;99.90;;;;;;5069670;28;20081;-87
2023/05/01 07:33:25;;;;;;;13.07;7.90;;;11.40;99.90;;;;;;5066486;28;20500;-86
2023/05/01 07:35:52;;;;;;;17.75;8.18;;;11.40;99.90;;;;;;5050292;28;20028;-86
2023/05/01 07:38:18;;;;;;;15.88;7.95;;;11.30;99.90;;;;;;5060738;28;20040;-86
2023/05/01 07:40:43;;;;;;;12.10;7.68;;;11.30;99.90;;;;;;5055141;28;20034;-86
2023/05/01 07:43:10;;;;;;;13.05;7.35;;;11.20;99.90;;;;;;5036150;28;20035;-86
2023/05/01 07:45:41;;;;;;;11.20;7.32;;;11.20;99.90;;;;;;5066386;28;20464;-85
2023/05/01 07:48:08;;;;;;;10.82;7.72;;;11.20;99.90;;;;;;5051447;28;20048;-86
2023/05/01 07:50:34;;;;;;;10.80;8.35;;;11.20;99.90;;;;;;5067216;28;20118;-86
2023/05/01 07:52:59;;;;;;;13.80;8.60;;;11.30;99.90;;;;;;5049119;28;20012;-86
2023/05/01 07:55:25;;;;;;;9.65;7.32;;;11.30;99.90;;;;;;5049243;28;20050;-86
2023/05/01 07:57:51;;;;;;;12.98;8.35;;;11.40;99.90;;;;;;5050974;28;20051;-86
2023/05/01 08:00:17;;;;;;;17.48;8.23;;;11.30;99.90;;;;;;5037371;28;20029;-86
2023/05/01 08:02:43;;;;;;;11.48;8.13;;;11.30;99.90;;;;;;5049414;28;20037;-86
2023/05/01 08:05:09;;;;;;;15.55;8.20;;;11.40;99.90;;;;;;5037768;28;20021;-86
2023/05/01 08:07:35;;;;;;;15.10;8.18;;;11.50;99.90;;;;;;5053174;28;20035;-86
2023/05/01 08:10:00;;;;;;;13.30;8.45;;;11.60;99.90;;;;;;5064349;28;20029;-86
2023/05/01 08:12:28;;;;;;;13.98;8.20;;;11.50;99.90;;;;;;5053140;28;20033;-86
2023/05/01 08:14:53;;;;;;;12.30;8.18;;;11.50;99.90;;;;;;5050074;28;20415;-86
2023/05/01 08:17:19;;;;;;;11.65;7.93;;;11.40;99.90;;;;;;5049470;28;20024;-86
2023/05/01 08:19:45;;;;;;;12.75;8.07;;;11.40;99.90;;;;;;5055335;28;20096;-86
2023/05/01 08:22:11;;;;;;;17.23;7.88;;;11.60;99.90;;;;;;5052070;28;20472;-86
2023/05/01 08:24:41;;;;;;;12.18;8.20;;;11.80;99.90;;;;;;5051556;28;20032;-87
2023/05/01 08:27:08;;;;;;;15.63;8.43;;;11.80;99.90;;;;;;5051546;28;20372;-86
2023/05/01 08:29:34;;;;;;;15.65;8.80;;;11.90;99.90;;;;;;5072486;28;20072;-85
2023/05/01 08:31:59;;;;;;;13.98;8.57;;;11.90;99.90;;;;;;5050666;28;20102;-87
2023/05/01 08:34:25;;;;;;;12.23;8.70;;;11.90;99.90;;;;;;5054645;28;20032;-85
2023/05/01 08:36:51;;;;;;;14.85;7.80;;;12.00;99.90;;;;;;5070066;28;20035;-86
2023/05/01 08:39:17;;;;;;;14.85;8.35;;;12.00;99.90;;;;;;5054430;28;20036;-86
2023/05/01 08:41:46;;;;;;;14.32;8.35;;;12.00;99.90;;;;;;5068881;28;20036;-86
2023/05/01 08:44:15;;;;;;;13.45;8.57;;;12.00;99.90;;;;;;5064486;28;20052;-85
2023/05/01 08:46:48;;;;;;;12.50;8.82;;;11.90;99.90;;;;;;5048133;28;20032;-86
2023/05/01 08:49:18;;;;;;;15.80;8.80;;;11.90;99.90;;;;;;5072475;28;20048;-86
2023/05/01 08:51:48;;;;;;;12.40;8.50;;;11.90;99.90;;;;;;5072310;28;20123;-86
2023/05/01 08:54:15;;;;;;;11.75;8.63;;;11.80;99.90;;;;;;5055538;28;20028;-86
2023/05/01 08:56:43;;;;;;;15.73;8.18;;;11.90;99.90;;;;;;5050462;28;20027;-87
2023/05/01 08:59:11;;;;;;;14.55;8.90;;;11.90;99.90;;;;;;5052168;28;20029;-86
2023/05/01 09:01:38;;;;;;;13.98;8.32;;;12.00;99.90;;;;;;5047218;28;20127;-86
2023/05/01 09:04:05;;;;;;;13.98;9.23;;;11.90;99.90;;;;;;5051998;28;20028;-87
2023/05/01 09:06:31;;;;;;;17.67;9.43;;;12.00;99.90;;;;;;5058326;28;20170;-86
2023/05/01 09:08:58;;;;;;;12.73;9.13;;;11.90;99.90;;;;;;5056113;28;20497;-86
2023/05/01 09:11:24;;;;;;;11.27;8.00;;;11.90;99.90;;;;;;5055201;28;20086;-86
2023/05/01 09:13:51;;;;;;;13.15;8.77;;;12.00;99.90;;;;;;5058626;28;20127;-87
2023/05/01 09:16:19;;;;;;;15.15;8.75;;;12.10;99.90;;;;;;5063796;28;20041;-87
2023/05/01 09:18:46;;;;;;;11.55;8.52;;;12.20;99.90;;;;;;5055121;28;20038;-86
2023/05/01 09:21:12;;;;;;;16.30;9.20;;;12.30;99.90;;;;;;5055962;28;20021;-86
2023/05/01 09:23:39;;;;;;;10.98;7.47;;;12.30;99.90;;;;;;5054765;28;20060;-86
2023/05/01 09:26:06;;;;;;;12.30;8.85;;;12.30;99.90;;;;;;5065395;28;20051;-86
2023/05/01 09:28:43;;;;;;;13.88;8.82;;;12.30;99.90;;;;;;5054711;28;20120;-86
2023/05/01 09:31:31;;;;;;;13.20;8.45;;;12.30;99.90;;;;;;5075495;28;20841;-86
2023/05/01 09:34:05;;;;;;;13.40;9.23;;;12.60;99.90;;;;;;5057770;28;20037;-86
2023/05/01 09:36:33;;;;;;;17.13;8.40;;;12.50;99.90;;;;;;5042358;28;20029;-86
2023/05/01 09:39:02;;;;;;;16.65;8.80;;;12.80;99.90;;;;;;5063573;28;20480;-86
2023/05/01 09:41:31;;;;;;;12.65;8.27;;;12.90;99.90;;;;;;5069481;28;20561;-86
2023/05/01 09:43:58;;;;;;;12.43;8.65;;;12.80;99.90;;;;;;5066901;28;20104;-86
2023/05/01 09:46:25;;;;;;;14.15;9.77;;;12.90;99.90;;;;;;5055276;28;20420;-86
2023/05/01 09:48:58;;;;;;;14.68;10.27;;;13.10;99.90;;;;;;5054644;28;20468;-86
2023/05/01 09:51:31;;;;;;;14.73;9.85;;;12.70;99.90;;;;;;5070254;28;20041;-86
2023/05/01 09:54:03;;;;;;;20.00;11.50;;;12.80;99.90;;;;;;5059364;28;20037;-86
2023/05/01 09:56:31;;;;;;;15.32;8.93;;;13.10;99.90;;;;;;5063158;28;20117;-86
2023/05/01 09:58:58;;;;;;;13.45;8.95;;;13.40;99.90;;;;;;5061968;28;20048;-86
2023/05/01 10:01:42;;;;;;;14.48;9.13;;;13.80;99.90;;;;;;5044219;28;20037;-86
2023/05/01 10:04:11;;;;;;;13.23;8.95;;;13.80;99.90;;;;;;5051954;28;20086;-87
2023/05/01 10:06:37;;;;;;;11.70;8.75;;;14.20;99.90;;;;;;5049551;28;20033;-85
2023/05/01 10:09:05;;;;;;;12.63;8.63;;;14.10;99.90;;;;;;5046583;28;20029;-86
2023/05/01 10:11:51;;;;;;;12.05;8.70;;;13.80;99.90;;;;;;5064771;28;20052;-86
2023/05/01 10:14:17;;;;;;;14.98;8.60;;;13.60;99.90;;;;;;5048847;28;20063;-86
2023/05/01 10:16:44;;;;;;;13.63;8.90;;;13.50;99.90;;;;;;5045988;28;20021;-87
2023/05/01 10:19:10;;;;;;;14.07;9.43;;;13.80;99.90;;;;;;5068583;28;20064;-86
2023/05/01 10:21:36;;;;;;;12.43;9.18;;;13.90;99.90;;;;;;5050304;28;20091;-86
2023/05/01 10:24:02;;;;;;;12.00;9.00;;;14.10;99.90;;;;;;5063827;28;20033;-87
2023/05/01 10:26:28;;;;;;;13.55;8.15;;;14.00;99.90;;;;;;5058487;28;20568;-87
2023/05/01 10:28:58;;;;;;;18.17;9.75;;;14.20;99.90;;;;;;5057754;28;20116;-86
2023/05/01 10:31:25;;;;;;;13.20;7.80;;;14.40;99.90;;;;;;5068046;28;20036;-87
2023/05/01 10:33:52;;;;;;;10.05;8.02;;;15.10;99.90;;;;;;5057989;28;20028;-87
2023/05/01 10:36:32;;;;;;;18.60;7.88;;;15.60;99.90;;;;;;5066928;28;20467;-87
2023/05/01 10:38:58;;;;;;;11.45;8.00;;;16.40;99.90;;;;;;5058078;28;20033;-87
2023/05/01 10:42:05;;;;;;;12.90;7.65;;;16.90;99.90;;;;;;5055597;28;20025;-85
2023/05/01 10:44:33;;;;;;;11.27;7.30;;;17.50;99.90;;;;;;5050182;28;20450;-85
2023/05/01 10:47:24;;;;;;;11.43;7.97;;;17.90;99.90;;;;;;5058235;28;20059;-87
2023/05/01 10:50:06;;;;;;;12.47;7.20;;;17.40;99.90;;;;;;5058561;28;20468;-87
2023/05/01 10:53:09;;;;;;;9.88;7.20;;;17.70;99.90;;;;;;5063166;28;20032;-85
2023/05/01 10:55:37;;;;;;;10.20;6.88;;;18.10;99.90;;;;;;5046535;28;20032;-85
2023/05/01 10:58:03;;;;;;;8.52;6.53;;;19.20;99.90;;;;;;5054555;28;20123;-85
2023/05/01 11:00:29;;;;;;;11.93;7.65;;;20.00;96.10;;;;;;5050054;28;20067;-86
2023/05/01 11:03:20;;;;;;;8.02;6.40;;;20.80;94.70;;;;;;5057313;28;20111;-85
2023/05/01 11:06:04;;;;;;;8.82;6.55;;;20.00;91.80;;;;;;5062260;28;20079;-86
2023/05/01 11:08:37;;;;;;;8.70;6.18;;;20.40;92.10;;;;;;5066887;28;20484;-85
2023/05/01 11:11:18;;;;;;;8.07;6.10;;;20.80;92.30;;;;;;5065261;28;20036;-85
2023/05/01 11:14:00;;;;;;;9.77;7.10;;;20.30;90.90;;;;;;5052880;28;20021;-87
2023/05/01 11:16:40;;;;;;;9.50;7.38;;;19.20;92.90;;;;;;5054718;28;20054;-87
2023/05/01 11:19:10;;;;;;;9.43;6.22;;;19.30;93.00;;;;;;5061999;28;20040;-88
2023/05/01 11:21:37;;;;;;;9.55;6.82;;;18.90;94.80;;;;;;5042100;28;20101;-86
2023/05/01 11:24:07;;;;;;;9.15;6.90;;;18.90;93.50;;;;;;5050884;28;20473;-86
2023/05/01 11:26:41;;;;;;;9.13;7.38;;;17.90;94.20;;;;;;5067803;28;20025;-87
2023/05/01 11:29:09;;;;;;;9.40;6.95;;;17.70;94.40;;;;;;5046401;28;20165;-87
2023/05/01 11:31:35;;;;;;;12.25;6.75;;;17.60;95.00;;;;;;5065158;28;20033;-85
2023/05/01 11:34:02;;;;;;;13.65;7.03;;;19.00;94.40;;;;;;5052955;28;20171;-85
2023/05/01 11:36:29;;;;;;;11.43;7.60;;;19.30;94.50;;;;;;5071486;28;20032;-86
2023/05/01 11:38:57;;;;;;;11.85;7.40;;;20.30;92.30;;;;;;5053270;28;20039;-85
2023/05/01 11:41:24;;;;;;;9.00;6.82;;;20.80;90.50;;;;;;5048272;28;20033;-85
2023/05/01 11:43:51;;;;;;;10.93;7.25;;;21.10;89.40;;;;;;5062549;28;20055;-85
2023/05/01 11:46:31;;;;;;;10.73;7.75;;;20.30;91.90;;;;;;5053488;28;20067;-87
2023/05/01 11:49:01;;;;;;;12.52;6.85;;;19.00;92.30;;;;;;5070578;28;20328;-87
2023/05/01 11:51:28;;;;;;;10.43;6.57;;;17.90;92.20;;;;;;5059513;28;20132;-86
2023/05/01 11:54:12;;;;;;;9.43;6.63;;;17.70;92.00;;;;;;5044941;28;20085;-87
2023/05/01 11:56:39;;;;;;;10.40;6.75;;;17.80;93.60;;;;;;5057791;28;20365;-85
2023/05/01 11:59:12;;;;;;;7.78;6.38;;;18.60;94.20;;;;;;5042998;28;20032;-85
2023/05/01 12:01:40;;;;;;;12.00;6.72;;;19.30;91.40;;;;;;5063456;28;20024;-85
2023/05/01 12:04:10;;;;;;;9.68;6.88;;;20.00;90.30;;;;;;5045884;28;20391;-86
2023/05/01 12:06:44;;;;;;;10.00;6.10;;;20.20;89.20;;;;;;5061225;28;20040;-85
2023/05/01 12:09:21;;;;;;;9.40;6.65;;;19.90;90.60;;;;;;5048784;28;20028;-85
2023/05/01 12:11:52;;;;;;;12.15;7.55;;;20.00;92.60;;;;;;5055906;28;20036;-87
2023/05/01 12:14:18;;;;;;;8.53;6.70;;;19.50;93.50;;;;;;5058773;28;20556;-87
2023/05/01 12:16:45;;;;;;;10.85;6.43;;;19.10;93.30;;;;;;5055053;28;20306;-87
2023/05/01 12:19:15;;;;;;;10.38;7.22;;;19.20;92.70;;;;;;5046386;28;20029;-87
2023/05/01 12:21:40;;;;;;;9.00;6.60;;;18.80;92.40;;;;;;5041611;28;20083;-86
2023/05/01 12:24:15;;;;;;;8.65;6.72;;;18.90;94.40;;;;;;5033510;28;20073;-87
2023/05/01 12:26:42;;;;;;;11.63;6.85;;;18.40;95.30;;;;;;5060096;28;20048;-86
2023/05/01 12:29:08;;;;;;;9.40;7.07;;;17.90;96.20;;;;;;5066485;28;20036;-87
2023/05/01 12:31:35;;;;;;;14.00;7.38;;;17.60;96.10;;;;;;5062250;28;20534;-87
2023/05/01 12:34:03;;;;;;;9.45;6.45;;;18.10;95.80;;;;;;5049281;28;20054;-87
2023/05/01 12:36:31;;;;;;;7.82;5.63;;;18.90;96.50;;;;;;5043459;28;20033;-87
2023/05/01 12:39:03;;;;;;;10.32;5.55;;;19.70;93.20;;;;;;5069321;28;20679;-87
2023/05/01 12:41:47;;;;;;;7.68;5.38;;;20.40;92.20;;;;;;5056724;28;20033;-87
2023/05/01 12:44:19;;;;;;;9.65;6.28;;;21.00;90.60;;;;;;5051406;28;20032;-87
2023/05/01 12:46:52;;;;;;;11.10;5.35;;;21.40;88.20;;;;;;5052497;28;20017;-87
2023/05/01 12:49:22;;;;;;;6.72;5.90;;;21.20;87.90;;;;;;5056062;28;20025;-88
2023/05/01 12:51:49;;;;;;;8.97;5.40;;;21.20;86.20;;;;;;5056793;28;20124;-87
2023/05/01 12:54:25;;;;;;;7.80;5.82;;;21.00;83.80;;;;;;5054616;28;20274;-87
2023/05/01 12:56:53;;;;;;;9.57;6.75;;;20.90;87.70;;;;;;5052894;28;20476;-87